sensor_id;sensor_type;location;lat;lon;timestamp;pressure;altitude;pressure_sealevel;temperature;humidity
75418;BME280;63997;52.112;5.420;2023-11-22T00:01:23;102908.94;;;4.10;100.00
75418;BME280;63997;52.112;5.420;2023-11-22T00:03:51;102911.00;;;4.08;100.00
75418;BME280;63997;52.112;5.420;2023-11-22T00:06:18;102905.16;;;4.06;100.00
75418;BME280;63997;52.112;5.420;2023-11-22T00:08:46;102905.38;;;4.04;100.00
75418;BME280;63997;52.112;5.420;2023-11-22T00:11:13;102911.09;;;4.01;100.00
75418;BME280;63997;52.112;5.420;2023-11-22T00:13:40;102913.34;;;3.97;100.00
75418;BME280;63997;52.112;5.420;2023-11-22T00:16:07;102915.53;;;4.01;100.00
75418;BME280;63997;52.112;5.420;2023-11-22T00:18:35;102923.88;;;3.97;100.00
75418;BME280;63997;52.112;5.420;2023-11-22T00:21:03;102937.63;;;4.00;100.00
75418;BME280;63997;52.112;5.420;2023-11-22T00:23:30;102938.66;;;3.98;100.00
75418;BME280;63997;52.112;5.420;2023-11-22T00:25:56;102935.00;;;4.00;100.00
75418;BME280;63997;52.112;5.420;2023-11-22T00:28:23;102937.63;;;4.00;100.00
75418;BME280;63997;52.112;5.420;2023-11-22T00:30:49;102941.31;;;3.98;100.00
75418;BME280;63997;52.112;5.420;2023-11-22T00:33:16;102939.66;;;3.97;100.00
75418;BME280;63997;52.112;5.420;2023-11-22T00:35:44;102942.75;;;3.94;100.00
75418;BME280;63997;52.112;5.420;2023-11-22T00:38:11;102950.66;;;3.94;100.00
75418;BME280;63997;52.112;5.420;2023-11-22T00:40:38;102940.69;;;3.96;100.00
75418;BME280;63997;52.112;5.420;2023-11-22T00:43:04;102942.53;;;3.96;100.00
75418;BME280;63997;52.112;5.420;2023-11-22T00:45:31;102937.50;;;3.94;100.00
75418;BME280;63997;52.112;5.420;2023-11-22T00:47:57;102932.81;;;3.96;100.00
75418;BME280;63997;52.112;5.420;2023-11-22T00:50:24;102942.53;;;3.96;100.00
75418;BME280;63997;52.112;5.420;2023-11-22T00:52:50;102941.16;;;3.93;100.00
75418;BME280;63997;52.112;5.420;2023-11-22T00:55:17;102942.75;;;3.94;100.00
75418;BME280;63997;52.112;5.420;2023-11-22T00:57:43;102937.94;;;3.91;100.00
75418;BME280;63997;52.112;5.420;2023-11-22T01:00:10;102946.47;;;3.87;100.00
75418;BME280;63997;52.112;5.420;2023-11-22T01:02:38;102957.25;;;3.85;100.00
75418;BME280;63997;52.112;5.420;2023-11-22T01:05:06;102953.44;;;3.81;100.00
75418;BME280;63997;52.112;5.420;2023-11-22T01:07:38;102965.78;;;3.81;100.00
75418;BME280;63997;52.112;5.420;2023-11-22T01:10:05;102969.69;;;3.78;100.00
75418;BME280;63997;52.112;5.420;2023-11-22T01:12:32;102975.97;;;3.77;100.00
75418;BME280;63997;52.112;5.420;2023-11-22T01:14:59;102986.13;;;3.74;100.00
75418;BME280;63997;52.112;5.420;2023-11-22T01:17:25;102995.72;;;3.68;100.00
75418;BME280;63997;52.112;5.420;2023-11-22T01:19:52;103003.03;;;3.66;100.00
75418;BME280;63997;52.112;5.420;2023-11-22T01:22:18;103006.53;;;3.60;100.00
75418;BME280;63997;52.112;5.420;2023-11-22T01:24:46;103003.13;;;3.53;100.00
75418;BME280;63997;52.112;5.420;2023-11-22T01:27:12;103009.66;;;3.50;100.00
75418;BME280;63997;52.112;5.420;2023-11-22T01:29:38;103011.91;;;3.47;100.00
75418;BME280;63997;52.112;5.420;2023-11-22T01:32:05;103008.94;;;3.43;100.00
75418;BME280;63997;52.112;5.420;2023-11-22T01:34:31;103008.94;;;3.43;100.00
75418;BME280;63997;52.112;5.420;2023-11-22T01:36:58;103012.78;;;3.40;100.00
75418;BME280;63997;52.112;5.420;2023-11-22T01:39:24;103013.22;;;3.37;100.00
75418;BME280;63997;52.112;5.420;2023-11-22T01:41:50;103013.88;;;3.33;100.00
75418;BME280;63997;52.112;5.420;2023-11-22T01:44:17;103022.19;;;3.30;100.00
75418;BME280;63997;52.112;5.420;2023-11-22T01:46:45;103019.19;;;3.26;100.00
75418;BME280;63997;52.112;5.420;2023-11-22T01:49:11;103022.00;;;3.25;100.00
75418;BME280;63997;52.112;5.420;2023-11-22T01:51:39;103017.63;;;3.18;100.00
75418;BME280;63997;52.112;5.420;2023-11-22T01:54:09;103006.75;;;3.15;100.00
75418;BME280;63997;52.112;5.420;2023-11-22T01:56:38;103010.19;;;3.15;100.00
75418;BME280;63997;52.112;5.420;2023-11-22T01:59:04;103009.38;;;3.15;100.00
75418;BME280;63997;52.112;5.420;2023-11-22T02:01:31;103012.41;;;3.12;100.00
75418;BME280;63997;52.112;5.420;2023-11-22T02:03:58;103011.63;;;3.11;100.00
75418;BME280;63997;52.112;5.420;2023-11-22T02:06:25;103009.00;;;3.11;100.00
75418;BME280;63997;52.112;5.420;2023-11-22T02:08:52;103017.28;;;3.08;100.00
75418;BME280;63997;52.112;5.420;2023-11-22T02:11:19;103015.91;;;3.06;100.00
75418;BME280;63997;52.112;5.420;2023-11-22T02:13:48;103016.31;;;3.03;100.00
75418;BME280;63997;52.112;5.420;2023-11-22T02:16:18;103018.75;;;3.04;100.00
75418;BME280;63997;52.112;5.420;2023-11-22T02:18:48;103016.31;;;3.03;100.00
75418;BME280;63997;52.112;5.420;2023-11-22T02:21:18;103017.00;;;2.98;100.00
75418;BME280;63997;52.112;5.420;2023-11-22T02:23:45;103024.72;;;2.93;100.00
75418;BME280;63997;52.112;5.420;2023-11-22T02:26:11;103027.53;;;2.91;100.00
75418;BME280;63997;52.112;5.420;2023-11-22T02:28:38;103019.88;;;2.90;100.00
75418;BME280;63997;52.112;5.420;2023-11-22T02:31:04;103013.63;;;2.84;100.00
75418;BME280;63997;52.112;5.420;2023-11-22T02:33:31;103016.09;;;2.79;100.00
75418;BME280;63997;52.112;5.420;2023-11-22T02:35:57;103014.72;;;2.77;100.00
75418;BME280;63997;52.112;5.420;2023-11-22T02:38:23;103009.69;;;2.75;100.00
75418;BME280;63997;52.112;5.420;2023-11-22T02:40:52;103010.25;;;2.77;100.00
75418;BME280;63997;52.112;5.420;2023-11-22T02:43:20;103007.63;;;2.77;100.00
75418;BME280;63997;52.112;5.420;2023-11-22T02:45:47;103003.88;;;2.67;100.00
75418;BME280;63997;52.112;5.420;2023-11-22T02:48:13;103005.13;;;2.57;100.00
75418;BME280;63997;52.112;5.420;2023-11-22T02:50:40;103012.03;;;2.52;100.00
75418;BME280;63997;52.112;5.420;2023-11-22T02:53:10;103006.78;;;2.52;100.00
75418;BME280;63997;52.112;5.420;2023-11-22T02:55:36;102997.91;;;2.53;100.00
75418;BME280;63997;52.112;5.420;2023-11-22T02:58:03;102996.47;;;2.50;100.00
75418;BME280;63997;52.112;5.420;2023-11-22T03:00:30;102994.66;;;2.51;100.00
75418;BME280;63997;52.112;5.420;2023-11-22T03:02:56;102995.91;;;2.48;100.00
75418;BME280;63997;52.112;5.420;2023-11-22T03:05:23;102997.91;;;2.46;100.00
75418;BME280;63997;52.112;5.420;2023-11-22T03:07:50;102999.16;;;2.44;100.00
75418;BME280;63997;52.112;5.420;2023-11-22T03:10:17;102996.94;;;2.41;100.00
75418;BME280;63997;52.112;5.420;2023-11-22T03:12:44;103007.88;;;2.37;100.00
75418;BME280;63997;52.112;5.420;2023-11-22T03:15:11;103010.72;;;2.36;100.00
75418;BME280;63997;52.112;5.420;2023-11-22T03:17:37;103023.00;;;2.35;100.00
75418;BME280;63997;52.112;5.420;2023-11-22T03:20:08;103019.41;;;2.36;100.00
75418;BME280;63997;52.112;5.420;2023-11-22T03:22:37;103026.88;;;2.33;100.00
75418;BME280;63997;52.112;5.420;2023-11-22T03:25:04;103032.34;;;2.31;100.00
75418;BME280;63997;52.112;5.420;2023-11-22T03:27:30;103036.56;;;2.32;100.00
75418;BME280;63997;52.112;5.420;2023-11-22T03:29:57;103035.16;;;2.30;100.00
75418;BME280;63997;52.112;5.420;2023-11-22T03:32:24;103049.72;;;2.26;100.00
75418;BME280;63997;52.112;5.420;2023-11-22T03:34:51;103053.78;;;2.22;100.00
75418;BME280;63997;52.112;5.420;2023-11-22T03:37:17;103054.19;;;2.25;100.00
75418;BME280;63997;52.112;5.420;2023-11-22T03:39:44;103060.25;;;2.26;100.00
75418;BME280;63997;52.112;5.420;2023-11-22T03:42:15;103082.03;;;2.26;100.00
75418;BME280;63997;52.112;5.420;2023-11-22T03:44:44;103079.41;;;2.26;100.00
75418;BME280;63997;52.112;5.420;2023-11-22T03:47:11;103071.94;;;2.23;100.00
75418;BME280;63997;52.112;5.420;2023-11-22T03:49:39;103079.00;;;2.23;100.00
75418;BME280;63997;52.112;5.420;2023-11-22T03:52:05;103085.88;;;2.24;100.00
75418;BME280;63997;52.112;5.420;2023-11-22T03:54:32;103090.94;;;2.25;100.00
75418;BME280;63997;52.112;5.420;2023-11-22T03:57:01;103096.59;;;2.22;100.00
75418;BME280;63997;52.112;5.420;2023-11-22T03:59:28;103101.25;;;2.20;100.00
75418;BME280;63997;52.112;5.420;2023-11-22T04:01:55;103110.72;;;2.21;100.00
75418;BME280;63997;52.112;5.420;2023-11-22T04:04:22;103111.75;;;2.20;100.00
75418;BME280;63997;52.112;5.420;2023-11-22T04:06:48;103109.72;;;2.22;100.00
75418;BME280;63997;52.112;5.420;2023-11-22T04:09:16;103114.97;;;2.22;100.00
75418;BME280;63997;52.112;5.420;2023-11-22T04:11:46;103114.75;;;2.24;100.00
75418;BME280;63997;52.112;5.420;2023-11-22T04:14:15;103119.81;;;2.25;100.00
75418;BME280;63997;52.112;5.420;2023-11-22T04:16:42;103119.81;;;2.25;100.00
75418;BME280;63997;52.112;5.420;2023-11-22T04:19:09;103123.44;;;2.24;100.00
75418;BME280;63997;52.112;5.420;2023-11-22T04:21:36;103127.06;;;2.23;100.00
75418;BME280;63997;52.112;5.420;2023-11-22T04:24:02;103126.06;;;2.24;100.00
75418;BME280;63997;52.112;5.420;2023-11-22T04:26:29;103114.38;;;2.20;100.00
75418;BME280;63997;52.112;5.420;2023-11-22T04:28:55;103122.44;;;2.19;100.00
75418;BME280;63997;52.112;5.420;2023-11-22T04:31:21;103128.50;;;2.19;100.00
75418;BME280;63997;52.112;5.420;2023-11-22T04:33:48;103133.13;;;2.24;100.00
75418;BME280;63997;52.112;5.420;2023-11-22T04:36:15;103136.56;;;2.24;100.00
75418;BME280;63997;52.112;5.420;2023-11-22T04:38:42;103140.41;;;2.22;100.00
75418;BME280;63997;52.112;5.420;2023-11-22T04:41:09;103139.41;;;2.16;100.00
75418;BME280;63997;52.112;5.420;2023-11-22T04:43:35;103137.00;;;2.15;100.00
75418;BME280;63997;52.112;5.420;2023-11-22T04:46:03;103136.19;;;2.14;100.00
75418;BME280;63997;52.112;5.420;2023-11-22T04:48:30;103140.81;;;2.12;100.00
75418;BME280;63997;52.112;5.420;2023-11-22T04:50:57;103137.41;;;2.11;100.00
75418;BME280;63997;52.112;5.420;2023-11-22T04:53:23;103133.16;;;2.10;100.00
75418;BME280;63997;52.112;5.420;2023-11-22T04:55:50;103130.13;;;2.07;100.00
75418;BME280;63997;52.112;5.420;2023-11-22T04:58:16;103136.59;;;2.04;100.00
75418;BME280;63997;52.112;5.420;2023-11-22T05:00:42;103138.22;;;1.99;100.00
75418;BME280;63997;52.112;5.420;2023-11-22T05:03:09;103126.94;;;1.92;100.00
75418;BME280;63997;52.112;5.420;2023-11-22T05:05:35;103118.06;;;1.86;100.00
75418;BME280;63997;52.112;5.420;2023-11-22T05:08:02;103123.31;;;1.86;100.00
75418;BME280;63997;52.112;5.420;2023-11-22T05:10:29;103124.50;;;1.90;100.00
75418;BME280;63997;52.112;5.420;2023-11-22T05:12:55;103121.09;;;1.90;100.00
75418;BME280;63997;52.112;5.420;2023-11-22T05:15:27;103118.47;;;1.90;100.00
75418;BME280;63997;52.112;5.420;2023-11-22T05:17:53;103119.66;;;1.94;100.00
75418;BME280;63997;52.112;5.420;2023-11-22T05:20:20;103125.31;;;1.97;100.00
75418;BME280;63997;52.112;5.420;2023-11-22T05:22:46;103119.88;;;1.99;100.00
75418;BME280;63997;52.112;5.420;2023-11-22T05:25:13;103117.25;;;1.99;100.00
75418;BME280;63997;52.112;5.420;2023-11-22T05:27:39;103128.16;;;2.02;100.00
75418;BME280;63997;52.112;5.420;2023-11-22T05:30:06;103112.78;;;2.06;100.00
75418;BME280;63997;52.112;5.420;2023-11-22T05:32:33;103105.53;;;2.08;100.00
75418;BME280;63997;52.112;5.420;2023-11-22T05:35:00;103128.13;;;2.09;100.00
75418;BME280;63997;52.112;5.420;2023-11-22T05:37:26;103115.59;;;2.11;100.00
75418;BME280;63997;52.112;5.420;2023-11-22T05:39:53;103120.84;;;2.11;100.00
75418;BME280;63997;52.112;5.420;2023-11-22T05:42:19;103129.31;;;2.13;100.00
75418;BME280;63997;52.112;5.420;2023-11-22T05:44:46;103125.69;;;2.14;100.00
75418;BME280;63997;52.112;5.420;2023-11-22T05:47:12;103131.53;;;2.16;100.00
75418;BME280;63997;52.112;5.420;2023-11-22T05:49:39;103143.44;;;2.19;100.00
75418;BME280;63997;52.112;5.420;2023-11-22T05:52:06;103146.06;;;2.19;100.00
75418;BME280;63997;52.112;5.420;2023-11-22T05:54:33;103143.25;;;2.14;100.00
75418;BME280;63997;52.112;5.420;2023-11-22T05:56:59;103141.25;;;2.09;100.00
75418;BME280;63997;52.112;5.420;2023-11-22T05:59:25;103141.44;;;2.07;100.00
75418;BME280;63997;52.112;5.420;2023-11-22T06:01:52;103147.09;;;2.04;100.00
75418;BME280;63997;52.112;5.420;2023-11-22T06:04:18;103141.06;;;2.04;100.00
75418;BME280;63997;52.112;5.420;2023-11-22T06:06:45;103140.84;;;2.05;100.00
75418;BME280;63997;52.112;5.420;2023-11-22T06:09:12;103150.53;;;2.05;100.00
75418;BME280;63997;52.112;5.420;2023-11-22T06:11:40;103154.75;;;2.06;100.00
75418;BME280;63997;52.112;5.420;2023-11-22T06:14:07;103151.13;;;2.07;100.00
75418;BME280;63997;52.112;5.420;2023-11-22T06:16:33;103140.84;;;2.05;100.00
75418;BME280;63997;52.112;5.420;2023-11-22T06:19:00;103139.22;;;2.04;100.00
75418;BME280;63997;52.112;5.420;2023-11-22T06:21:26;103146.31;;;2.04;100.00
75418;BME280;63997;52.112;5.420;2023-11-22T06:23:53;103144.91;;;2.08;100.00
75418;BME280;63997;52.112;5.420;2023-11-22T06:26:22;103153.34;;;2.10;100.00
75418;BME280;63997;52.112;5.420;2023-11-22T06:28:48;103164.06;;;2.15;100.00
75418;BME280;63997;52.112;5.420;2023-11-22T06:31:15;103170.91;;;2.16;100.00
75418;BME280;63997;52.112;5.420;2023-11-22T06:33:42;103177.19;;;2.15;100.00
75418;BME280;63997;52.112;5.420;2023-11-22T06:36:08;103179.00;;;2.15;100.00
75418;BME280;63997;52.112;5.420;2023-11-22T06:38:37;103172.13;;;2.14;100.00
75418;BME280;63997;52.112;5.420;2023-11-22T06:41:04;103169.69;;;2.12;100.00
75418;BME280;63997;52.112;5.420;2023-11-22T06:43:30;103165.06;;;2.14;100.00
75418;BME280;63997;52.112;5.420;2023-11-22T06:45:56;103155.75;;;2.11;100.00
75418;BME280;63997;52.112;5.420;2023-11-22T06:48:23;103157.59;;;2.11;100.00
75418;BME280;63997;52.112;5.420;2023-11-22T06:50:49;103150.31;;;2.13;100.00
75418;BME280;63997;52.112;5.420;2023-11-22T06:53:16;103149.72;;;2.11;100.00
75418;BME280;63997;52.112;5.420;2023-11-22T06:55:45;103147.50;;;2.15;100.00
75418;BME280;63997;52.112;5.420;2023-11-22T06:58:12;103133.16;;;2.17;100.00
75418;BME280;63997;52.112;5.420;2023-11-22T07:00:40;103134.75;;;2.18;100.00
75418;BME280;63997;52.112;5.420;2023-11-22T07:03:07;103134.75;;;2.18;100.00
75418;BME280;63997;52.112;5.420;2023-11-22T07:05:33;103144.63;;;2.23;100.00
75418;BME280;63997;52.112;5.420;2023-11-22T07:08:00;103143.44;;;2.25;100.00
75418;BME280;63997;52.112;5.420;2023-11-22T07:10:28;103140.81;;;2.25;100.00
75418;BME280;63997;52.112;5.420;2023-11-22T07:12:54;103149.28;;;2.27;100.00
75418;BME280;63997;52.112;5.420;2023-11-22T07:15:22;103165.63;;;2.29;100.00
75418;BME280;63997;52.112;5.420;2023-11-22T07:17:48;103166.25;;;2.31;100.00
75418;BME280;63997;52.112;5.420;2023-11-22T07:20:15;103155.75;;;2.31;100.00
75418;BME280;63997;52.112;5.420;2023-11-22T07:22:44;103163.00;;;2.29;100.00
75418;BME280;63997;52.112;5.420;2023-11-22T07:25:10;103165.22;;;2.32;100.00
75418;BME280;63997;52.112;5.420;2023-11-22T07:27:45;103157.94;;;2.34;100.00
75418;BME280;63997;52.112;5.420;2023-11-22T07:30:13;103157.34;;;2.32;100.00
75418;BME280;63997;52.112;5.420;2023-11-22T07:32:40;103155.31;;;2.34;100.00
75418;BME280;63997;52.112;5.420;2023-11-22T07:35:07;103157.53;;;2.37;100.00
75418;BME280;63997;52.112;5.420;2023-11-22T07:37:38;103157.31;;;2.39;100.00
75418;BME280;63997;52.112;5.420;2023-11-22T07:40:11;103166.41;;;2.43;100.00
75418;BME280;63997;52.112;5.420;2023-11-22T07:42:43;103168.22;;;2.49;100.00
75418;BME280;63997;52.112;5.420;2023-11-22T07:45:10;103174.44;;;2.55;100.00
75418;BME280;63997;52.112;5.420;2023-11-22T07:47:39;103174.25;;;2.56;100.00
75418;BME280;63997;52.112;5.420;2023-11-22T07:50:09;103167.16;;;2.57;100.00
75418;BME280;63997;52.112;5.420;2023-11-22T07:52:37;103166.34;;;2.56;100.00
75418;BME280;63997;52.112;5.420;2023-11-22T07:55:06;103158.69;;;2.55;100.00
75418;BME280;63997;52.112;5.420;2023-11-22T07:57:39;103160.50;;;2.54;100.00
75418;BME280;63997;52.112;5.420;2023-11-22T08:00:06;103167.78;;;2.59;100.00
75418;BME280;63997;52.112;5.420;2023-11-22T08:02:34;103174.44;;;2.61;100.00
75418;BME280;63997;52.112;5.420;2023-11-22T08:05:03;103190.97;;;2.69;100.00
75418;BME280;63997;52.112;5.420;2023-11-22T08:07:32;103201.00;;;2.85;100.00
75418;BME280;63997;52.112;5.420;2023-11-22T08:09:59;103208.38;;;3.08;100.00
75418;BME280;63997;52.112;5.420;2023-11-22T08:12:28;103220.47;;;3.22;100.00
75418;BME280;63997;52.112;5.420;2023-11-22T08:14:55;103215.59;;;3.26;100.00
75418;BME280;63997;52.112;5.420;2023-11-22T08:17:23;103226.31;;;3.24;100.00
75418;BME280;63997;52.112;5.420;2023-11-22T08:19:49;103233.59;;;3.22;100.00
75418;BME280;63997;52.112;5.420;2023-11-22T08:22:17;103227.94;;;3.18;100.00
75418;BME280;63997;52.112;5.420;2023-11-22T08:24:43;103219.47;;;3.16;100.00
75418;BME280;63997;52.112;5.420;2023-11-22T08:27:10;103224.75;;;3.16;100.00
75418;BME280;63997;52.112;5.420;2023-11-22T08:29:36;103240.28;;;3.18;100.00
75418;BME280;63997;52.112;5.420;2023-11-22T08:32:03;103232.00;;;3.21;100.00
75418;BME280;63997;52.112;5.420;2023-11-22T08:34:31;103227.91;;;3.25;100.00
75418;BME280;63997;52.112;5.420;2023-11-22T08:36:57;103217.00;;;3.28;100.00
75418;BME280;63997;52.112;5.420;2023-11-22T08:39:25;103237.63;;;3.31;100.00
75418;BME280;63997;52.112;5.420;2023-11-22T08:41:51;103219.00;;;3.33;100.00
75418;BME280;63997;52.112;5.420;2023-11-22T08:44:18;103223.63;;;3.37;100.00
75418;BME280;63997;52.112;5.420;2023-11-22T08:46:45;103224.00;;;3.41;100.00
75418;BME280;63997;52.112;5.420;2023-11-22T08:49:13;103217.28;;;3.45;100.00
75418;BME280;63997;52.112;5.420;2023-11-22T08:51:41;103213.00;;;3.51;100.00
75418;BME280;63997;52.112;5.420;2023-11-22T08:54:09;103221.88;;;3.56;100.00
75418;BME280;63997;52.112;5.420;2023-11-22T08:56:35;103215.53;;;3.64;100.00
75418;BME280;63997;52.112;5.420;2023-11-22T08:59:02;103218.78;;;3.66;100.00
75418;BME280;63997;52.112;5.420;2023-11-22T09:01:30;103221.78;;;3.69;100.00
75418;BME280;63997;52.112;5.420;2023-11-22T09:03:57;103217.94;;;3.72;100.00
75418;BME280;63997;52.112;5.420;2023-11-22T09:06:23;103220.34;;;3.74;100.00
75418;BME280;63997;52.112;5.420;2023-11-22T09:08:50;103224.97;;;3.78;100.00
75418;BME280;63997;52.112;5.420;2023-11-22T09:11:17;103220.66;;;3.84;100.00
75418;BME280;63997;52.112;5.420;2023-11-22T09:13:46;103220.59;;;3.90;100.00
75418;BME280;63997;52.112;5.420;2023-11-22T09:16:12;103218.94;;;3.96;100.00
75418;BME280;63997;52.112;5.420;2023-11-22T09:18:39;103217.28;;;4.02;100.00
75418;BME280;63997;52.112;5.420;2023-11-22T09:21:05;103221.09;;;4.06;100.00
75418;BME280;63997;52.112;5.420;2023-11-22T09:23:32;103229.00;;;4.06;100.00
75418;BME280;63997;52.112;5.420;2023-11-22T09:25:59;103219.66;;;4.10;100.00
75418;BME280;63997;52.112;5.420;2023-11-22T09:28:26;103231.34;;;4.14;100.00
75418;BME280;63997;52.112;5.420;2023-11-22T09:30:53;103228.28;;;4.17;100.00
75418;BME280;63997;52.112;5.420;2023-11-22T09:33:27;103232.47;;;4.24;100.00
75418;BME280;63997;52.112;5.420;2023-11-22T09:35:54;103228.59;;;4.27;100.00
75418;BME280;63997;52.112;5.420;2023-11-22T09:38:20;103225.91;;;4.34;100.00
75418;BME280;63997;52.112;5.420;2023-11-22T09:40:48;103231.09;;;4.40;100.00
75418;BME280;63997;52.112;5.420;2023-11-22T09:43:18;103227.22;;;4.43;100.00
75418;BME280;63997;52.112;5.420;2023-11-22T09:45:50;103222.47;;;4.51;100.00
75418;BME280;63997;52.112;5.420;2023-11-22T09:48:22;103230.38;;;4.51;100.00
75418;BME280;63997;52.112;5.420;2023-11-22T09:53:55;103230.06;;;4.60;100.00
75418;BME280;63997;52.112;5.420;2023-11-22T09:56:27;103230.44;;;4.63;100.00
75418;BME280;63997;52.112;5.420;2023-11-22T09:58:55;103224.38;;;4.63;100.00
75418;BME280;63997;52.112;5.420;2023-11-22T10:01:23;103230.69;;;4.62;100.00
75418;BME280;63997;52.112;5.420;2023-11-22T10:03:50;103231.25;;;4.64;100.00
75418;BME280;63997;52.112;5.420;2023-11-22T10:06:17;103231.47;;;4.62;100.00
75418;BME280;63997;52.112;5.420;2023-11-22T10:08:44;103221.16;;;4.61;100.00
75418;BME280;63997;52.112;5.420;2023-11-22T10:11:15;103212.66;;;4.59;100.00
75418;BME280;63997;52.112;5.420;2023-11-22T10:13:47;103219.53;;;4.60;100.00
75418;BME280;63997;52.112;5.420;2023-11-22T10:16:14;103197.31;;;4.56;100.00
75418;BME280;63997;52.112;5.420;2023-11-22T10:18:44;103179.06;;;4.54;100.00
75418;BME280;63997;52.112;5.420;2023-11-22T10:21:25;103205.06;;;4.50;100.00
75418;BME280;63997;52.112;5.420;2023-11-22T10:23:54;103210.25;;;4.57;100.00
75418;BME280;63997;52.112;5.420;2023-11-22T10:26:24;103201.69;;;4.62;100.00
75418;BME280;63997;52.112;5.420;2023-11-22T10:28:51;103199.19;;;4.67;100.00
75418;BME280;63997;52.112;5.420;2023-11-22T10:31:19;103202.78;;;4.72;100.00
75418;BME280;63997;52.112;5.420;2023-11-22T10:33:48;103194.78;;;4.79;100.00
75418;BME280;63997;52.112;5.420;2023-11-22T10:36:15;103190.00;;;4.88;100.00
75418;BME280;63997;52.112;5.420;2023-11-22T10:38:46;103182.25;;;4.93;100.00
75418;BME280;63997;52.112;5.420;2023-11-22T10:41:13;103181.44;;;4.92;100.00
75418;BME280;63997;52.112;5.420;2023-11-22T10:43:40;103184.34;;;5.02;100.00
75418;BME280;63997;52.112;5.420;2023-11-22T10:46:08;103173.03;;;5.14;100.00
75418;BME280;63997;52.112;5.420;2023-11-22T10:48:38;103170.53;;;5.19;100.00
75418;BME280;63997;52.112;5.420;2023-11-22T10:51:06;103156.53;;;5.18;100.00
75418;BME280;63997;52.112;5.420;2023-11-22T10:53:34;103165.63;;;5.22;100.00
75418;BME280;63997;52.112;5.420;2023-11-22T10:56:07;103162.09;;;5.28;100.00
75418;BME280;63997;52.112;5.420;2023-11-22T10:58:48;103164.63;;;5.35;100.00
75418;BME280;63997;52.112;5.420;2023-11-22T11:01:16;103158.97;;;5.31;100.00
75418;BME280;63997;52.112;5.420;2023-11-22T11:03:56;103168.72;;;5.31;100.00
75418;BME280;63997;52.112;5.420;2023-11-22T11:06:31;103166.22;;;5.36;100.00
75418;BME280;63997;52.112;5.420;2023-11-22T11:09:04;103169.22;;;5.40;100.00
75418;BME280;63997;52.112;5.420;2023-11-22T11:11:51;103156.34;;;5.43;100.00
75418;BME280;63997;52.112;5.420;2023-11-22T11:14:18;103152.59;;;5.51;100.00
75418;BME280;63997;52.112;5.420;2023-11-22T11:16:45;103128.63;;;5.64;100.00
75418;BME280;63997;52.112;5.420;2023-11-22T11:19:17;103110.72;;;5.78;100.00
75418;BME280;63997;52.112;5.420;2023-11-22T11:21:44;103106.69;;;5.87;100.00
75418;BME280;63997;52.112;5.420;2023-11-22T11:24:11;103101.09;;;5.95;100.00
75418;BME280;63997;52.112;5.420;2023-11-22T11:26:38;103101.56;;;5.92;99.96
75418;BME280;63997;52.112;5.420;2023-11-22T11:29:05;103093.03;;;5.90;99.69
75418;BME280;63997;52.112;5.420;2023-11-22T11:31:34;103098.31;;;5.90;99.11
75418;BME280;63997;52.112;5.420;2023-11-22T11:34:06;103094.28;;;5.88;99.20
75418;BME280;63997;52.112;5.420;2023-11-22T11:36:32;103084.91;;;5.92;99.26
75418;BME280;63997;52.112;5.420;2023-11-22T11:39:12;103065.84;;;5.90;99.06
75418;BME280;63997;52.112;5.420;2023-11-22T11:41:41;103059.28;;;5.80;98.57
75418;BME280;63997;52.112;5.420;2023-11-22T11:44:08;103063.66;;;5.75;98.35
75418;BME280;63997;52.112;5.420;2023-11-22T11:46:39;103064.47;;;5.75;98.28
75418;BME280;63997;52.112;5.420;2023-11-22T11:49:07;103059.63;;;5.72;98.61
75418;BME280;63997;52.112;5.420;2023-11-22T11:51:34;103069.38;;;5.72;98.33
75418;BME280;63997;52.112;5.420;2023-11-22T11:54:01;103069.63;;;5.70;98.25
75418;BME280;63997;52.112;5.420;2023-11-22T11:56:27;103070.66;;;5.69;97.89
75418;BME280;63997;52.112;5.420;2023-11-22T11:58:56;103066.19;;;5.70;97.87
75418;BME280;63997;52.112;5.420;2023-11-22T12:01:29;103067.78;;;5.71;97.60
75418;BME280;63997;52.112;5.420;2023-11-22T12:03:57;103054.34;;;5.72;97.54
75418;BME280;63997;52.112;5.420;2023-11-22T12:06:23;103064.22;;;5.77;97.38
75418;BME280;63997;52.112;5.420;2023-11-22T12:08:50;103064.91;;;5.84;97.42
75418;BME280;63997;52.112;5.420;2023-11-22T12:11:16;103058.91;;;5.89;97.27
75418;BME280;63997;52.112;5.420;2023-11-22T12:13:44;103059.31;;;5.92;96.98
75418;BME280;63997;52.112;5.420;2023-11-22T12:16:15;103055.63;;;5.93;96.54
75418;BME280;63997;52.112;5.420;2023-11-22T12:18:48;103056.66;;;5.92;96.15
75418;BME280;63997;52.112;5.420;2023-11-22T12:21:18;103056.06;;;5.90;95.93
75418;BME280;63997;52.112;5.420;2023-11-22T12:23:46;103055.06;;;5.91;95.07
75418;BME280;63997;52.112;5.420;2023-11-22T12:26:17;103047.13;;;5.91;94.62
75418;BME280;63997;52.112;5.420;2023-11-22T12:28:47;103049.88;;;5.96;94.28
75418;BME280;63997;52.112;5.420;2023-11-22T12:31:29;103039.63;;;6.00;94.29
75418;BME280;63997;52.112;5.420;2023-11-22T12:33:56;103041.84;;;6.03;94.15
75418;BME280;63997;52.112;5.420;2023-11-22T12:36:24;103040.53;;;6.05;94.07
75418;BME280;63997;52.112;5.420;2023-11-22T12:38:55;103033.56;;;5.99;93.77
75418;BME280;63997;52.112;5.420;2023-11-22T12:41:21;103040.44;;;6.00;94.33
75418;BME280;63997;52.112;5.420;2023-11-22T12:44:04;103033.56;;;5.99;94.15
75418;BME280;63997;52.112;5.420;2023-11-22T12:46:51;103019.78;;;5.97;94.42
75418;BME280;63997;52.112;5.420;2023-11-22T12:49:23;103023.78;;;6.00;94.80
75418;BME280;63997;52.112;5.420;2023-11-22T12:51:51;103017.25;;;6.02;95.10
75418;BME280;63997;52.112;5.420;2023-11-22T12:54:18;103009.56;;;6.01;95.28
75418;BME280;63997;52.112;5.420;2023-11-22T12:56:49;103010.84;;;5.98;95.28